sensor_id;sensor_type;location;lat;lon;timestamp;pressure;altitude;pressure_sealevel;temperature;humidity
66479;BME280;53294;47.912;13.526;2022-10-15T00:00:50;95850.94;;;15.91;62.51
66479;BME280;53294;47.912;13.526;2022-10-15T00:03:17;95840.09;;;15.91;62.50
66479;BME280;53294;47.912;13.526;2022-10-15T00:05:43;95834.00;;;15.94;62.33
66479;BME280;53294;47.912;13.526;2022-10-15T00:08:10;95840.31;;;15.98;62.11
66479;BME280;53294;47.912;13.526;2022-10-15T00:10:37;95837.59;;;15.86;62.84
66479;BME280;53294;47.912;13.526;2022-10-15T00:13:05;95838.44;;;15.66;64.00
66479;BME280;53294;47.912;13.526;2022-10-15T00:15:32;95840.28;;;15.74;62.94
66479;BME280;53294;47.912;13.526;2022-10-15T00:17:58;95831.47;;;15.65;63.25
66479;BME280;53294;47.912;13.526;2022-10-15T00:20:25;95834.88;;;15.74;62.88
66479;BME280;53294;47.912;13.526;2022-10-15T00:22:52;95834.44;;;15.84;62.37
66479;BME280;53294;47.912;13.526;2022-10-15T00:25:18;95829.91;;;15.76;63.03
66479;BME280;53294;47.912;13.526;2022-10-15T00:27:45;95830.31;;;15.53;63.66
66479;BME280;53294;47.912;13.526;2022-10-15T00:30:12;95832.56;;;15.51;63.62
66479;BME280;53294;47.912;13.526;2022-10-15T00:32:38;95829.56;;;15.65;62.99
66479;BME280;53294;47.912;13.526;2022-10-15T00:35:05;95826.16;;;15.68;62.82
66479;BME280;53294;47.912;13.526;2022-10-15T00:37:32;95819.06;;;15.64;63.27
66479;BME280;53294;47.912;13.526;2022-10-15T00:39:59;95816.25;;;15.72;62.55
66479;BME280;53294;47.912;13.526;2022-10-15T00:42:26;95801.75;;;15.77;62.57
66479;BME280;53294;47.912;13.526;2022-10-15T00:44:55;95808.69;;;15.66;63.47
66479;BME280;53294;47.912;13.526;2022-10-15T00:50:24;95807.31;;;15.59;63.42
66479;BME280;53294;47.912;13.526;2022-10-15T00:53:04;95807.31;;;15.72;62.57
66479;BME280;53294;47.912;13.526;2022-10-15T00:55:37;95798.31;;;15.68;62.50
66479;BME280;53294;47.912;13.526;2022-10-15T00:58:14;95797.63;;;15.58;63.42
66479;BME280;53294;47.912;13.526;2022-10-15T01:00:42;95804.59;;;15.59;63.27
66479;BME280;53294;47.912;13.526;2022-10-15T01:03:09;95796.47;;;15.59;62.97
66479;BME280;53294;47.912;13.526;2022-10-15T01:05:38;95783.09;;;15.63;62.83
66479;BME280;53294;47.912;13.526;2022-10-15T01:08:05;95783.63;;;15.69;62.72
66479;BME280;53294;47.912;13.526;2022-10-15T01:10:42;95785.91;;;15.67;62.74
66479;BME280;53294;47.912;13.526;2022-10-15T01:13:35;95785.56;;;15.56;63.33
66479;BME280;53294;47.912;13.526;2022-10-15T01:19:05;95788.25;;;15.43;63.83
66479;BME280;53294;47.912;13.526;2022-10-15T01:21:43;95781.22;;;15.42;63.77
66479;BME280;53294;47.912;13.526;2022-10-15T01:27:07;95772.59;;;15.61;63.29
66479;BME280;53294;47.912;13.526;2022-10-15T01:30:23;95769.25;;;15.77;62.71
66479;BME280;53294;47.912;13.526;2022-10-15T01:33:02;95767.03;;;15.58;63.05
66479;BME280;53294;47.912;13.526;2022-10-15T01:35:49;95751.81;;;15.66;62.42
66479;BME280;53294;47.912;13.526;2022-10-15T01:38:26;95758.84;;;15.67;62.76
66479;BME280;53294;47.912;13.526;2022-10-15T01:40:58;95748.69;;;15.64;62.74
66479;BME280;53294;47.912;13.526;2022-10-15T01:43:32;95749.94;;;15.66;63.02
66479;BME280;53294;47.912;13.526;2022-10-15T01:46:05;95754.53;;;15.66;62.79
66479;BME280;53294;47.912;13.526;2022-10-15T01:48:35;95748.69;;;15.64;62.92
66479;BME280;53294;47.912;13.526;2022-10-15T01:51:04;95749.34;;;15.60;63.28
66479;BME280;53294;47.912;13.526;2022-10-15T01:53:32;95738.97;;;15.50;63.90
66479;BME280;53294;47.912;13.526;2022-10-15T01:56:04;95741.47;;;15.55;63.66
66479;BME280;53294;47.912;13.526;2022-10-15T01:58:35;95741.22;;;15.60;63.13
66479;BME280;53294;47.912;13.526;2022-10-15T02:01:04;95742.47;;;15.63;63.06
66479;BME280;53294;47.912;13.526;2022-10-15T02:03:31;95742.34;;;15.59;63.40
66479;BME280;53294;47.912;13.526;2022-10-15T02:06:09;95739.88;;;15.67;63.06
66479;BME280;53294;47.912;13.526;2022-10-15T02:08:47;95734.22;;;15.59;63.47
66479;BME280;53294;47.912;13.526;2022-10-15T02:11:18;95733.22;;;15.64;63.27
66479;BME280;53294;47.912;13.526;2022-10-15T02:19:22;95724.41;;;15.55;64.14
66479;BME280;53294;47.912;13.526;2022-10-15T02:21:52;95721.59;;;15.64;63.65
66479;BME280;53294;47.912;13.526;2022-10-15T02:24:21;95724.56;;;15.58;64.09
66479;BME280;53294;47.912;13.526;2022-10-15T02:26:51;95722.28;;;15.36;65.10
66479;BME280;53294;47.912;13.526;2022-10-15T02:29:22;95727.69;;;15.36;65.33
66479;BME280;53294;47.912;13.526;2022-10-15T02:31:50;95720.91;;;15.42;64.89
66479;BME280;53294;47.912;13.526;2022-10-15T02:34:20;95722.84;;;15.41;65.07
66479;BME280;53294;47.912;13.526;2022-10-15T02:36:48;95720.69;;;15.47;64.58
66479;BME280;53294;47.912;13.526;2022-10-15T02:39:19;95723.63;;;15.54;64.25
66479;BME280;53294;47.912;13.526;2022-10-15T02:41:47;95723.97;;;15.40;65.09
66479;BME280;53294;47.912;13.526;2022-10-15T02:44:14;95712.22;;;15.24;65.39
66479;BME280;53294;47.912;13.526;2022-10-15T02:46:41;95701.97;;;15.30;65.13
66479;BME280;53294;47.912;13.526;2022-10-15T02:49:07;95707.16;;;15.35;64.98
66479;BME280;53294;47.912;13.526;2022-10-15T02:51:34;95699.72;;;15.44;64.62
66479;BME280;53294;47.912;13.526;2022-10-15T02:54:03;95693.41;;;15.52;64.27
66479;BME280;53294;47.912;13.526;2022-10-15T02:56:30;95692.06;;;15.58;63.95
66479;BME280;53294;47.912;13.526;2022-10-15T02:58:57;95696.34;;;15.47;64.89
66479;BME280;53294;47.912;13.526;2022-10-15T03:01:23;95689.91;;;15.52;64.61
66479;BME280;53294;47.912;13.526;2022-10-15T03:03:50;95703.56;;;15.43;65.15
66479;BME280;53294;47.912;13.526;2022-10-15T03:06:17;95694.97;;;15.41;65.37
66479;BME280;53294;47.912;13.526;2022-10-15T03:08:43;95698.69;;;15.49;65.10
66479;BME280;53294;47.912;13.526;2022-10-15T03:11:10;95702.75;;;15.30;66.48
66479;BME280;53294;47.912;13.526;2022-10-15T03:13:38;95704.22;;;15.28;66.62
66479;BME280;53294;47.912;13.526;2022-10-15T03:16:08;95705.13;;;15.32;66.29
66479;BME280;53294;47.912;13.526;2022-10-15T03:18:35;95703.34;;;15.48;65.38
66479;BME280;53294;47.912;13.526;2022-10-15T03:21:06;95701.19;;;15.54;65.17
66479;BME280;53294;47.912;13.526;2022-10-15T03:23:33;95705.59;;;15.46;65.38
66479;BME280;53294;47.912;13.526;2022-10-15T03:26:00;95711.44;;;15.36;66.24
66479;BME280;53294;47.912;13.526;2022-10-15T03:28:27;95710.09;;;15.30;66.12
66479;BME280;53294;47.912;13.526;2022-10-15T03:30:53;95710.31;;;15.24;66.53
66479;BME280;53294;47.912;13.526;2022-10-15T03:33:20;95696.91;;;15.40;65.64
66479;BME280;53294;47.912;13.526;2022-10-15T03:35:50;95691.59;;;15.44;65.60
66479;BME280;53294;47.912;13.526;2022-10-15T03:38:18;95687.88;;;15.36;65.50
66479;BME280;53294;47.912;13.526;2022-10-15T03:40:45;95686.88;;;15.41;65.34
66479;BME280;53294;47.912;13.526;2022-10-15T03:43:11;95690.03;;;15.43;65.44
66479;BME280;53294;47.912;13.526;2022-10-15T03:45:38;95687.09;;;15.48;64.91
66479;BME280;53294;47.912;13.526;2022-10-15T03:48:05;95690.03;;;15.43;65.51
66479;BME280;53294;47.912;13.526;2022-10-15T03:50:31;95684.84;;;15.50;65.19
66479;BME280;53294;47.912;13.526;2022-10-15T03:52:58;95684.97;;;15.54;65.18
66479;BME280;53294;47.912;13.526;2022-10-15T03:55:27;95687.34;;;15.55;64.63
66479;BME280;53294;47.912;13.526;2022-10-15T03:57:54;95690.47;;;15.45;65.13
66479;BME280;53294;47.912;13.526;2022-10-15T04:00:20;95690.72;;;15.28;66.60
66479;BME280;53294;47.912;13.526;2022-10-15T04:02:47;95703.09;;;15.41;65.81
66479;BME280;53294;47.912;13.526;2022-10-15T04:05:14;95691.94;;;15.55;64.94
66479;BME280;53294;47.912;13.526;2022-10-15T04:07:40;95685.31;;;15.40;66.44
66479;BME280;53294;47.912;13.526;2022-10-15T04:10:08;95678.06;;;15.32;66.21
66479;BME280;53294;47.912;13.526;2022-10-15T04:12:34;95678.06;;;15.44;65.67
66479;BME280;53294;47.912;13.526;2022-10-15T04:15:02;95675.50;;;15.48;65.54
66479;BME280;53294;47.912;13.526;2022-10-15T04:17:28;95679.41;;;15.50;65.43
66479;BME280;53294;47.912;13.526;2022-10-15T04:19:55;95678.97;;;15.48;65.42
66479;BME280;53294;47.912;13.526;2022-10-15T04:22:22;95684.72;;;15.34;66.06
66479;BME280;53294;47.912;13.526;2022-10-15T04:24:49;95687.78;;;15.45;65.64
66479;BME280;53294;47.912;13.526;2022-10-15T04:27:15;95689.38;;;15.46;65.89
66479;BME280;53294;47.912;13.526;2022-10-15T04:29:42;95679.66;;;15.45;66.17
66479;BME280;53294;47.912;13.526;2022-10-15T04:32:12;95681.59;;;15.44;65.76
66479;BME280;53294;47.912;13.526;2022-10-15T04:34:39;95679.41;;;15.50;65.70
66479;BME280;53294;47.912;13.526;2022-10-15T04:37:06;95688.13;;;15.43;66.07
66479;BME280;53294;47.912;13.526;2022-10-15T04:39:33;95678.53;;;15.46;65.60
66479;BME280;53294;47.912;13.526;2022-10-15T04:41:59;95680.78;;;15.44;65.48
66479;BME280;53294;47.912;13.526;2022-10-15T04:44:26;95683.72;;;15.39;65.23
66479;BME280;53294;47.912;13.526;2022-10-15T04:46:53;95689.56;;;15.29;66.32
66479;BME280;53294;47.912;13.526;2022-10-15T04:49:19;95691.38;;;15.12;67.21
66479;BME280;53294;47.912;13.526;2022-10-15T04:51:46;95692.59;;;15.15;67.09
66479;BME280;53294;47.912;13.526;2022-10-15T04:54:12;95693.59;;;15.10;66.94
66479;BME280;53294;47.912;13.526;2022-10-15T04:56:39;95691.91;;;15.18;66.42
66479;BME280;53294;47.912;13.526;2022-10-15T04:59:07;95690.03;;;15.18;66.66
66479;BME280;53294;47.912;13.526;2022-10-15T05:01:34;95687.50;;;15.13;66.82
66479;BME280;53294;47.912;13.526;2022-10-15T05:04:00;95689.34;;;15.21;66.27
66479;BME280;53294;47.912;13.526;2022-10-15T05:06:27;95691.69;;;14.98;67.21
66479;BME280;53294;47.912;13.526;2022-10-15T05:08:54;95690.44;;;15.08;66.38
66479;BME280;53294;47.912;13.526;2022-10-15T05:11:23;95688.84;;;15.07;66.21
66479;BME280;53294;47.912;13.526;2022-10-15T05:13:50;95692.25;;;15.16;65.85
66479;BME280;53294;47.912;13.526;2022-10-15T05:16:23;95703.50;;;14.94;67.62
66479;BME280;53294;47.912;13.526;2022-10-15T05:18:51;95694.97;;;15.04;67.26
66479;BME280;53294;47.912;13.526;2022-10-15T05:21:20;95704.19;;;15.03;67.57
66479;BME280;53294;47.912;13.526;2022-10-15T05:23:47;95706.66;;;15.08;67.42
66479;BME280;53294;47.912;13.526;2022-10-15T05:26:21;95704.00;;;15.20;66.91
66479;BME280;53294;47.912;13.526;2022-10-15T05:28:49;95708.72;;;15.23;66.75
66479;BME280;53294;47.912;13.526;2022-10-15T05:31:18;95700.16;;;15.21;66.74
66479;BME280;53294;47.912;13.526;2022-10-15T05:33:46;95707.03;;;15.31;66.40
66479;BME280;53294;47.912;13.526;2022-10-15T05:36:15;95706.25;;;15.18;66.88
66479;BME280;53294;47.912;13.526;2022-10-15T05:38:47;95706.34;;;15.22;66.42
66479;BME280;53294;47.912;13.526;2022-10-15T05:41:14;95702.66;;;15.26;65.74
66479;BME280;53294;47.912;13.526;2022-10-15T05:43:41;95709.16;;;15.25;65.86
66479;BME280;53294;47.912;13.526;2022-10-15T05:46:08;95705.59;;;15.34;65.83
66479;BME280;53294;47.912;13.526;2022-10-15T05:48:35;95719.53;;;15.23;66.84
66479;BME280;53294;47.912;13.526;2022-10-15T05:51:07;95720.09;;;15.17;66.87
66479;BME280;53294;47.912;13.526;2022-10-15T05:53:36;95716.09;;;14.89;67.74
66479;BME280;53294;47.912;13.526;2022-10-15T05:56:03;95715.38;;;14.47;71.46
66479;BME280;53294;47.912;13.526;2022-10-15T05:58:32;95717.81;;;14.61;70.17
66479;BME280;53294;47.912;13.526;2022-10-15T06:01:05;95726.00;;;14.85;68.80
66479;BME280;53294;47.912;13.526;2022-10-15T06:03:32;95722.53;;;14.97;68.20
66479;BME280;53294;47.912;13.526;2022-10-15T06:05:59;95723.56;;;15.05;68.02
66479;BME280;53294;47.912;13.526;2022-10-15T06:08:27;95729.69;;;15.14;67.58
66479;BME280;53294;47.912;13.526;2022-10-15T06:10:54;95729.78;;;15.18;67.40
66479;BME280;53294;47.912;13.526;2022-10-15T06:13:22;95731.94;;;15.12;67.43
66479;BME280;53294;47.912;13.526;2022-10-15T06:15:48;95722.69;;;15.01;67.63
66479;BME280;53294;47.912;13.526;2022-10-15T06:18:15;95735.63;;;14.95;68.18
66479;BME280;53294;47.912;13.526;2022-10-15T06:20:42;95725.53;;;15.17;67.72
66479;BME280;53294;47.912;13.526;2022-10-15T06:23:10;95735.09;;;15.26;67.58
66479;BME280;53294;47.912;13.526;2022-10-15T06:25:37;95736.00;;;15.18;67.40
66479;BME280;53294;47.912;13.526;2022-10-15T06:28:05;95730.25;;;15.20;67.10
66479;BME280;53294;47.912;13.526;2022-10-15T06:30:32;95732.81;;;15.16;66.95
66479;BME280;53294;47.912;13.526;2022-10-15T06:32:59;95732.38;;;15.14;67.14
66479;BME280;53294;47.912;13.526;2022-10-15T06:35:25;95726.53;;;15.12;67.91
66479;BME280;53294;47.912;13.526;2022-10-15T06:37:55;95730.13;;;15.16;67.72
66479;BME280;53294;47.912;13.526;2022-10-15T06:40:29;95731.47;;;15.10;68.17
66479;BME280;53294;47.912;13.526;2022-10-15T06:43:06;95732.75;;;15.25;68.09
66479;BME280;53294;47.912;13.526;2022-10-15T06:45:37;95732.63;;;15.21;68.43
66479;BME280;53294;47.912;13.526;2022-10-15T06:48:05;95727.88;;;15.18;68.57
66479;BME280;53294;47.912;13.526;2022-10-15T06:50:33;95732.28;;;15.23;69.06
66479;BME280;53294;47.912;13.526;2022-10-15T06:53:00;95730.84;;;15.38;68.15
66479;BME280;53294;47.912;13.526;2022-10-15T06:55:27;95728.59;;;15.40;68.43
66479;BME280;53294;47.912;13.526;2022-10-15T06:57:57;95740.94;;;15.16;70.19
66479;BME280;53294;47.912;13.526;2022-10-15T07:00:24;95737.47;;;15.28;69.87
66479;BME280;53294;47.912;13.526;2022-10-15T07:02:51;95738.50;;;15.36;69.18
66479;BME280;53294;47.912;13.526;2022-10-15T07:05:18;95745.69;;;15.19;71.04
66479;BME280;53294;47.912;13.526;2022-10-15T07:07:52;95741.44;;;15.43;69.68
66479;BME280;53294;47.912;13.526;2022-10-15T07:10:20;95746.84;;;15.31;70.76
66479;BME280;53294;47.912;13.526;2022-10-15T07:12:47;95745.72;;;15.44;70.18
66479;BME280;53294;47.912;13.526;2022-10-15T07:15:14;95767.56;;;15.26;71.96
66479;BME280;53294;47.912;13.526;2022-10-15T07:17:51;95762.47;;;15.13;72.74
66479;BME280;53294;47.912;13.526;2022-10-15T07:20:19;95768.31;;;15.15;73.19
66479;BME280;53294;47.912;13.526;2022-10-15T07:22:50;95764.66;;;15.32;71.79
66479;BME280;53294;47.912;13.526;2022-10-15T07:25:17;95772.78;;;15.44;71.21
66479;BME280;53294;47.912;13.526;2022-10-15T07:27:44;95775.84;;;15.55;70.89
66479;BME280;53294;47.912;13.526;2022-10-15T07:30:10;95771.91;;;15.52;71.74
66479;BME280;53294;47.912;13.526;2022-10-15T07:32:37;95782.06;;;15.68;71.08
66479;BME280;53294;47.912;13.526;2022-10-15T07:35:04;95781.75;;;15.82;70.38
66479;BME280;53294;47.912;13.526;2022-10-15T07:37:31;95776.91;;;15.87;70.03
66479;BME280;53294;47.912;13.526;2022-10-15T07:39:58;95781.19;;;15.88;70.13
66479;BME280;53294;47.912;13.526;2022-10-15T07:42:25;95784.13;;;15.83;70.84
66479;BME280;53294;47.912;13.526;2022-10-15T07:44:51;95784.09;;;15.71;72.05
66479;BME280;53294;47.912;13.526;2022-10-15T07:47:18;95803.50;;;14.81;76.15
66479;BME280;53294;47.912;13.526;2022-10-15T07:49:45;95800.50;;;14.32;79.54
66479;BME280;53294;47.912;13.526;2022-10-15T07:52:11;95802.06;;;14.12;80.37
66479;BME280;53294;47.912;13.526;2022-10-15T07:54:38;95806.28;;;13.92;80.63
66479;BME280;53294;47.912;13.526;2022-10-15T07:57:04;95803.97;;;13.81;81.30
66479;BME280;53294;47.912;13.526;2022-10-15T07:59:34;95814.16;;;14.06;81.37
66479;BME280;53294;47.912;13.526;2022-10-15T08:02:01;95806.94;;;14.18;80.47
66479;BME280;53294;47.912;13.526;2022-10-15T08:04:28;95814.91;;;14.15;82.00
66479;BME280;53294;47.912;13.526;2022-10-15T08:06:54;95817.09;;;14.22;81.18
66479;BME280;53294;47.912;13.526;2022-10-15T08:09:21;95817.16;;;14.34;80.86
66479;BME280;53294;47.912;13.526;2022-10-15T08:11:48;95824.34;;;14.30;81.40
66479;BME280;53294;47.912;13.526;2022-10-15T08:14:14;95831.72;;;14.21;81.91
66479;BME280;53294;47.912;13.526;2022-10-15T08:16:41;95821.97;;;14.28;80.70
66479;BME280;53294;47.912;13.526;2022-10-15T08:19:07;95831.44;;;14.13;81.00
66479;BME280;53294;47.912;13.526;2022-10-15T08:21:34;95833.03;;;14.14;82.00
66479;BME280;53294;47.912;13.526;2022-10-15T08:24:01;95835.03;;;14.26;82.30
66479;BME280;53294;47.912;13.526;2022-10-15T08:26:27;95840.28;;;14.23;82.53
66479;BME280;53294;47.912;13.526;2022-10-15T08:28:54;95841.59;;;14.16;82.04
66479;BME280;53294;47.912;13.526;2022-10-15T08:31:20;95844.28;;;14.16;82.89
66479;BME280;53294;47.912;13.526;2022-10-15T08:33:48;95847.53;;;14.31;82.23
66479;BME280;53294;47.912;13.526;2022-10-15T08:36:15;95861.78;;;14.10;83.79
66479;BME280;53294;47.912;13.526;2022-10-15T08:38:42;95853.69;;;14.10;83.90
66479;BME280;53294;47.912;13.526;2022-10-15T08:44:05;95857.69;;;14.34;83.53
66479;BME280;53294;47.912;13.526;2022-10-15T08:46:36;95856.66;;;14.47;82.51
66479;BME280;53294;47.912;13.526;2022-10-15T08:49:06;95861.53;;;14.54;82.52
66479;BME280;53294;47.912;13.526;2022-10-15T08:51:44;95865.22;;;14.49;83.22
66479;BME280;53294;47.912;13.526;2022-10-15T08:54:14;95863.66;;;14.48;82.63
66479;BME280;53294;47.912;13.526;2022-10-15T08:56:53;95860.47;;;14.46;82.82
66479;BME280;53294;47.912;13.526;2022-10-15T08:59:38;95872.66;;;14.52;82.60
66479;BME280;53294;47.912;13.526;2022-10-15T09:02:21;95881.59;;;14.53;82.77
66479;BME280;53294;47.912;13.526;2022-10-15T09:07:29;95882.69;;;14.61;82.47
66479;BME280;53294;47.912;13.526;2022-10-15T09:10:15;95894.22;;;14.70;81.81
66479;BME280;53294;47.912;13.526;2022-10-15T09:15:27;95906.19;;;14.60;82.99
66479;BME280;53294;47.912;13.526;2022-10-15T09:17:58;95909.78;;;14.73;82.21
66479;BME280;53294;47.912;13.526;2022-10-15T09:20:30;95922.38;;;14.69;83.55
66479;BME280;53294;47.912;13.526;2022-10-15T09:22:57;95889.94;;;14.69;82.14
66479;BME280;53294;47.912;13.526;2022-10-15T09:25:30;95916.03;;;14.65;83.49
66479;BME280;53294;47.912;13.526;2022-10-15T09:28:01;95916.84;;;14.57;83.41
66479;BME280;53294;47.912;13.526;2022-10-15T09:30:48;95916.53;;;14.58;83.31
66479;BME280;53294;47.912;13.526;2022-10-15T09:33:26;95920.97;;;14.63;82.89
66479;BME280;53294;47.912;13.526;2022-10-15T09:36:07;95933.59;;;14.50;83.94
66479;BME280;53294;47.912;13.526;2022-10-15T09:43:56;95930.81;;;14.67;82.95
66479;BME280;53294;47.912;13.526;2022-10-15T09:46:24;95941.25;;;14.78;83.13
66479;BME280;53294;47.912;13.526;2022-10-15T09:49:06;95935.03;;;14.77;83.01
66479;BME280;53294;47.912;13.526;2022-10-15T09:51:39;95932.16;;;14.82;82.61
66479;BME280;53294;47.912;13.526;2022-10-15T09:54:28;95942.97;;;14.82;82.37
66479;BME280;53294;47.912;13.526;2022-10-15T09:56:57;95944.53;;;14.83;82.57
66479;BME280;53294;47.912;13.526;2022-10-15T09:59:24;95949.28;;;14.86;83.00
66479;BME280;53294;47.912;13.526;2022-10-15T10:02:03;95956.28;;;14.87;81.84
66479;BME280;53294;47.912;13.526;2022-10-15T10:04:33;95957.88;;;14.88;82.22
66479;BME280;53294;47.912;13.526;2022-10-15T10:07:02;95961.97;;;14.95;82.65
66479;BME280;53294;47.912;13.526;2022-10-15T10:09:32;95959.72;;;14.97;81.30
66479;BME280;53294;47.912;13.526;2022-10-15T10:12:03;95964.94;;;15.02;81.47
66479;BME280;53294;47.912;13.526;2022-10-15T10:14:43;95971.19;;;15.15;81.69
66479;BME280;53294;47.912;13.526;2022-10-15T10:17:20;95973.91;;;15.15;81.96
66479;BME280;53294;47.912;13.526;2022-10-15T10:20:12;95967.50;;;14.98;82.34
66479;BME280;53294;47.912;13.526;2022-10-15T10:22:47;95975.50;;;14.95;81.24
66479;BME280;53294;47.912;13.526;2022-10-15T10:27:58;95991.53;;;15.00;81.44
66479;BME280;53294;47.912;13.526;2022-10-15T10:30:34;95987.75;;;14.92;81.00
66479;BME280;53294;47.912;13.526;2022-10-15T10:33:02;95974.22;;;14.92;80.92
66479;BME280;53294;47.912;13.526;2022-10-15T10:35:49;96005.16;;;14.82;81.41
66479;BME280;53294;47.912;13.526;2022-10-15T10:38:34;96001.31;;;14.83;82.08
66479;BME280;53294;47.912;13.526;2022-10-15T10:41:04;95999.41;;;14.84;81.89
66479;BME280;53294;47.912;13.526;2022-10-15T10:43:35;95993.31;;;14.66;82.14
66479;BME280;53294;47.912;13.526;2022-10-15T10:48:48;95993.19;;;14.83;81.77
66479;BME280;53294;47.912;13.526;2022-10-15T10:51:20;95989.75;;;14.74;82.48
66479;BME280;53294;47.912;13.526;2022-10-15T10:56:19;95993.78;;;14.98;81.49
66479;BME280;53294;47.912;13.526;2022-10-15T10:58:51;95986.91;;;15.21;80.94
66479;BME280;53294;47.912;13.526;2022-10-15T11:01:21;95986.66;;;15.35;79.45
66479;BME280;53294;47.912;13.526;2022-10-15T11:03:47;96002.09;;;15.35;79.52
66479;BME280;53294;47.912;13.526;2022-10-15T11:06:33;95991.81;;;15.49;78.20
66479;BME280;53294;47.912;13.526;2022-10-15T11:09:30;95989.00;;;15.79;78.06
66479;BME280;53294;47.912;13.526;2022-10-15T11:14:55;95986.19;;;16.21;77.49
66479;BME280;53294;47.912;13.526;2022-10-15T11:18:02;95986.00;;;16.63;76.71
66479;BME280;53294;47.912;13.526;2022-10-15T11:32:11;95979.63;;;17.21;73.25
66479;BME280;53294;47.912;13.526;2022-10-15T11:38:12;95954.31;;;17.29;73.58
66479;BME280;53294;47.912;13.526;2022-10-15T11:43:17;95952.09;;;16.57;77.15
66479;BME280;53294;47.912;13.526;2022-10-15T11:49:14;95960.66;;;17.09;73.45
66479;BME280;53294;47.912;13.526;2022-10-15T11:54:42;95948.06;;;17.85;71.60
66479;BME280;53294;47.912;13.526;2022-10-15T11:57:18;95936.13;;;18.02;71.70
66479;BME280;53294;47.912;13.526;2022-10-15T12:00:05;95944.88;;;18.11;70.43
66479;BME280;53294;47.912;13.526;2022-10-15T12:02:38;95935.91;;;17.38;71.26
66479;BME280;53294;47.912;13.526;2022-10-15T12:05:09;95940.13;;;17.64;68.91
66479;BME280;53294;47.912;13.526;2022-10-15T12:07:41;95943.16;;;17.47;68.90
66479;BME280;53294;47.912;13.526;2022-10-15T12:13:01;95929.41;;;17.84;71.01
66479;BME280;53294;47.912;13.526;2022-10-15T12:20:46;95932.06;;;18.44;67.61
66479;BME280;53294;47.912;13.526;2022-10-15T12:23:39;95931.13;;;18.52;67.85
66479;BME280;53294;47.912;13.526;2022-10-15T12:26:30;95934.25;;;18.22;67.91
66479;BME280;53294;47.912;13.526;2022-10-15T12:29:04;95933.47;;;17.90;67.41
66479;BME280;53294;47.912;13.526;2022-10-15T12:31:47;95930.94;;;18.13;68.66
66479;BME280;53294;47.912;13.526;2022-10-15T12:34:48;95928.75;;;18.51;69.36
66479;BME280;53294;47.912;13.526;2022-10-15T12:37:17;95925.34;;;18.22;66.01
66479;BME280;53294;47.912;13.526;2022-10-15T12:39:45;95919.13;;;18.21;66.96
66479;BME280;53294;47.912;13.526;2022-10-15T12:42:31;95930.25;;;18.32;66.76
66479;BME280;53294;47.912;13.526;2022-10-15T12:45:01;95932.97;;;18.32;65.93
66479;BME280;53294;47.912;13.526;2022-10-15T12:50:23;95929.72;;;17.94;67.53
66479;BME280;53294;47.912;13.526;2022-10-15T12:52:51;95929.28;;;17.80;67.48
66479;BME280;53294;47.912;13.526;2022-10-15T12:55:29;95918.53;;;17.84;68.28
66479;BME280;53294;47.912;13.526;2022-10-15T13:02:52;95918.56;;;18.16;67.29
66479;BME280;53294;47.912;13.526;2022-10-15T13:07:55;95916.56;;;18.44;66.85
66479;BME280;53294;47.912;13.526;2022-10-15T13:12:58;95912.56;;;18.90;65.25
66479;BME280;53294;47.912;13.526;2022-10-15T13:15:27;95919.88;;;19.05;62.69
66479;BME280;53294;47.912;13.526;2022-10-15T13:17:57;95918.94;;;18.81;61.56
66479;BME280;53294;47.912;13.526;2022-10-15T13:23:19;95916.44;;;19.08;62.03
66479;BME280;53294;47.912;13.526;2022-10-15T13:26:19;95923.75;;;19.04;62.91
66479;BME280;53294;47.912;13.526;2022-10-15T13:28:48;95929.91;;;19.01;60.95
66479;BME280;53294;47.912;13.526;2022-10-15T13:33:44;95912.91;;;18.88;61.45
66479;BME280;53294;47.912;13.526;2022-10-15T13:36:20;95922.88;;;19.00;61.97
66479;BME280;53294;47.912;13.526;2022-10-15T13:39:02;95922.59;;;19.05;62.01
66479;BME280;53294;47.912;13.526;2022-10-15T13:41:33;95918.59;;;19.18;62.69
66479;BME280;53294;47.912;13.526;2022-10-15T13:44:00;95915.38;;;19.13;62.67
66479;BME280;53294;47.912;13.526;2022-10-15T13:46:33;95912.44;;;19.22;61.97
66479;BME280;53294;47.912;13.526;2022-10-15T13:49:08;95916.81;;;19.26;62.10
66479;BME280;53294;47.912;13.526;2022-10-15T13:51:41;95912.53;;;19.25;62.27
66479;BME280;53294;47.912;13.526;2022-10-15T13:54:13;95908.28;;;19.08;62.82
66479;BME280;53294;47.912;13.526;2022-10-15T13:56:43;95908.63;;;19.07;63.67
66479;BME280;53294;47.912;13.526;2022-10-15T13:59:16;95907.22;;;19.52;63.10
66479;BME280;53294;47.912;13.526;2022-10-15T14:01:51;95900.78;;;19.64;59.39
66479;BME280;53294;47.912;13.526;2022-10-15T14:04:22;95906.69;;;19.66;60.51
66479;BME280;53294;47.912;13.526;2022-10-15T14:06:54;95894.28;;;19.88;59.53
66479;BME280;53294;47.912;13.526;2022-10-15T14:09:28;95900.75;;;20.03;60.87
66479;BME280;53294;47.912;13.526;2022-10-15T14:11:55;95899.59;;;20.27;58.89
66479;BME280;53294;47.912;13.526;2022-10-15T14:14:37;95900.63;;;20.42;59.39
66479;BME280;53294;47.912;13.526;2022-10-15T14:17:08;95897.97;;;20.72;59.25
66479;BME280;53294;47.912;13.526;2022-10-15T14:19:38;95906.53;;;20.71;58.30
66479;BME280;53294;47.912;13.526;2022-10-15T14:22:05;95907.19;;;20.64;58.74
66479;BME280;53294;47.912;13.526;2022-10-15T14:29:41;95894.50;;;21.36;56.52
66479;BME280;53294;47.912;13.526;2022-10-15T14:32:41;95897.44;;;21.50;55.66
66479;BME280;53294;47.912;13.526;2022-10-15T14:35:24;95899.94;;;21.63;56.03
66479;BME280;53294;47.912;13.526;2022-10-15T14:37:59;95888.16;;;20.94;56.86
66479;BME280;53294;47.912;13.526;2022-10-15T14:40:26;95898.81;;;20.26;58.94
66479;BME280;53294;47.912;13.526;2022-10-15T14:43:16;95897.72;;;20.08;59.91